Overview

RunningSummary
ByShift


Sheet 1: RunningSummary

Day Start
Stop
TOR875 MBRATE BPL5MA Int. Protons Comments <7D> <7D>


























Date Time Date Time [E12 ppp] [E16 p/hr] [Watts]*100 [E17]
Tor875 MBRATE Int. Protons protons [e17] total


























Sunday 13-Apr-03 00:00 14-Apr-03 00:00 3.10 3.62
8.0




612.42


























Monday 14-Apr-03 00:00 15-Apr-03 00:00 2.23 2.34
5.2




617.62













Tuesday 15-Apr-03 00:00 16-Apr-03 00:00 3.18 2.83
6.2




623.82












Wednesday 16-Apr-03 00:00 17-Apr-03 00:00 2.62 2.55
5.7 ORBMP work. Off from 0830 to 1430



629.52












Thursday 17-Apr-03 00:00 18-Apr-03 00:00 3.69 3.71
8.4




637.92












Friday 18-Apr-03 00:00 19-Apr-03 00:00 3.35 3.16
7.1 Multiwire stuck in 400 MeV line



645.02












Saturday 19-Apr-03 00:00 20-Apr-03 00:00 3.64 3.92
8.7
3.12 3.16 7.0 49.3 653.72












Sunday 20-Apr-03 00:00 21-Apr-03 00:00 3.73 4.01
9.1
3.21 3.22 7.2 50.4 662.82












Monday 21-Apr-03 00:00 22-Apr-03 00:00 2.50 2.46
5.6 HVAC tripped, beam off from 0730 to 1030 3.24 3.23 7.3 50.8 668.42












Tuesday 22-Apr-03 00:00 23-Apr-03 00:00 3.71 3.40
7.7 Studies 3.32 3.32 7.5 52.3 676.12












Wednesday 23-Apr-03 00:00 24-Apr-03 00:00 3.36 2.79
4.8 Studies 3.43 3.35 7.3 51.4 680.92












Thursday 24-Apr-03 00:00 25-Apr-03 00:00 0.66 0.56
0.0 Down day 2.99 2.90 6.1 43.0 680.92












Friday 25-Apr-03 00:00 26-Apr-03 00:00 3.78 3.63 3.27 8.3 TLG Reboot 3.05 2.97 6.3 44.2 689.22












Saturday 26-Apr-03 00:00 27-Apr-03 00:00 3.81 3.91 3.41 9.1 TLG problems, rebooted 3.08 2.97 6.4 44.6 698.32












Sunday 27-Apr-03 00:00 28-Apr-03 00:00 3.92 3.92 3.57 8.8
3.11 2.95 6.3 44.3 707.12












Monday 28-Apr-03 00:00 29-Apr-03 00:00 3.25 3.04 2.86 6.8 Stack and store 3.21 3.04 6.5 45.5 713.92












Tuesday 29-Apr-03 00:00 30-Apr-03 00:00 2.09 2.03 2.22 4.6 Booster down 1030-2000 2.98 2.84 6.1 42.4 718.52












Wednesday 30-Apr-03 00:00 01-May-03 00:00 3.69 3.65 3.38 8.2 Stack and store 3.03 2.96 6.5 45.8 726.72












Thursday 01-May-03 00:00 02-May-03 00:00 3.78 3.56 3.24 8.0 Stack and store 3.47 3.39 7.7 53.8 734.72












Friday 02-May-03 00:00 03-May-03 00:00 3.13 3.22 2.99 7.3 LRF5 trip 0330 to 0800 3.38 3.33 7.5 52.8 742.02












Saturday 03-May-03 00:00 04-May-03 00:00 3.81 4.13 3.63 9.3
3.38 3.36 7.6 53.0 751.32












Sunday 04-May-03 00:00 05-May-03 00:00 3.60 3.65 3.42 8.3
3.34 3.33 7.5 52.5 759.62












Monday 05-May-03 00:00 06-May-03 00:00 3.68 3.67 3.54 8.3 Stack and store 3.40 3.42 7.7 54.0 767.92


























Tuesday 06-May-03 00:00 07-May-03 00:00 3.72 4.00 3.40 9.1 Stack and store 3.63 3.70 8.4 58.5 777.02


























Wednesday 07-May-03 00:00 08-May-03 00:00 3.77 4.12 3.45 9.4 Stack and store 3.64 3.76 8.5 59.7 786.42









































Thursday 08-May-03 00:00 09-May-03 00:00 3.72 3.85 3.53 8.7 Stack and store 3.63 3.81 8.6 60.4 795.12









































Friday 09-May-03 00:00 10-May-03 00:00 3.74 3.77 3.52 3.9 ORBMP failed at 1100 3.72 3.88 8.1 57.0 799.02

Saturday 10-May-03 00:00 11-May-03 00:00 3.65 3.57 3.43 2.4 ORBMP back at 1700 3.70 3.80 7.2 50.1 801.42
Sunday 11-May-03 00:00 12-May-03 00:00 3.83 4.23 3.72 9.6 Stack and store 3.73 3.89 7.3 51.4 811.02
Monday 12-May-03 00:00 13-May-03 00:00 3.80 4.08 3.61 9.3 Stack and store 3.75 3.95 7.5 52.4 820.32
Tuesday 13-May-03 00:00 14-May-03 00:00 3.31 3.65 3.33 8.3 Stack and store 3.69 3.90 7.4 51.6 828.62
Wednesday 14-May-03 00:00 15-May-03 00:00 4.01 4.03 3.71 9.1 Stack and store 3.72 3.88 7.3 51.3 837.72
Thursday 15-May-03 00:00 16-May-03 00:00 3.83 3.93 3.60 9.1 Stack and store 3.74 3.89 7.4 51.7 846.82
Friday 16-May-03 00:00 17-May-03 00:00 4.03 3.82 3.48 8.8 Stack and store. Notcher problem 3.78 3.90 8.1 56.6 855.62
Saturday 17-May-03 00:00 18-May-03 00:00 4.29 4.10 3.73 9.3 Stack and store 3.87 3.98 9.1 63.5 864.92
Sunday 18-May-03 00:00 19-May-03 00:00 4.00 3.85 3.70 8.7 Stack and store 3.90 3.92 8.9 62.6 873.62
Monday 19-May-03 00:00 20-May-03 00:00 0.90 0.45 0.84 1.0 Lower power loss to 200 W at 0000. Beam off at 0530 3.48 3.40 7.8 54.3 874.62
Tuesday 20-May-03 00:00 21-May-03 00:00 3.66 3.45 3.02 7.8 Studies 3.53 3.38 7.7 53.8 882.42
Wednesday 21-May-03 00:00 22-May-03 00:00 4.07 3.72 3.47 8.4 Stack and store. Go to 10 turns. Studies 3.54 3.33 7.6 53.1 890.82
Thursday 22-May-03 00:00 23-May-03 00:00 3.59 3.12 3.33 7.1 Stack and store 3.51 3.22 7.3 51.1 897.92
Friday 23-May-03 00:00 24-May-03 00:00 4.08 3.69 3.58 8.4 Stack and store. Go to 9 turns. 3.51 3.20 7.2 50.7 906.32
Saturday 24-May-03 00:00 25-May-03 00:00 3.77 3.63 3.53 8.2 Stack and store 3.44 3.13 7.1 49.6 914.52
Sunday 25-May-03 00:00 26-May-03 00:00 3.82 3.34 3.57 7.6 Stack and store 3.41 3.06 6.9 48.5 922.12
Monday 26-May-03 00:00 27-May-03 00:00 3.63 3.49 3.36 7.9 Stack and store. Significant drop in linac current after 1100 3.80 3.49 7.9 55.4 930.02
Tuesday 27-May-03 00:00 28-May-03 00:00 1.04 0.47 0.91 0.2 Turn down at 0000. Shut down. 3.43 3.07 6.8 47.8 930.24
Wednesday 28-May-03 00:00 29-May-03 00:00 0.00 0.00 0.00 0.0 Shut down. 2.85 2.53 5.6 39.4 930.24
Thursday 29-May-03 00:00 30-May-03 00:00 0.00 0.00 0.00 0.0 Shut down. 2.33 2.09 4.6 32.3 930.24
Friday 30-May-03 00:00 31-May-03 00:00 0.00 0.00 0.00 0.0 Shut down. 1.75 1.56 3.4 23.9 930.24
Saturday 31-May-03 00:00 01-Jun-03 00:00 3.45 1.54 2.15 3.6 Start up. 1.71 1.26 2.8 19.3 933.84
Sunday 01-Jun-03 00:00 02-Jun-03 00:00 3.22 3.06 2.06 6.0 Start up. 1.62 1.22 2.5 17.7 939.84
Monday 02-Jun-03 00:00 03-Jun-03 00:00 1.99 1.42 2.19 3.2 Replace LRF5 1.39 0.93 1.9 13.0 943.04
Tuesday 03-Jun-03 00:00 04-Jun-03 00:00 2.34 2.22 2.88 5.1
1.57 1.18 2.6 17.9 948.14
Wednesday 04-Jun-03 00:00 05-Jun-03 00:00 2.07 1.38 1.96 3.1
1.87 1.37 3.0 21.0 951.24
Thursday 05-Jun-03 00:00 06-Jun-03 00:00 2.07 0.83 1.56 1.9 Relpace LRF1 2.16 1.49 3.3 22.9 953.14
Friday 06-Jun-03 00:00 07-Jun-03 00:00 3.51 2.53 3.55 5.8 Stack and store 2.66 1.85 4.1 28.7 958.94









































Saturday 07-Jun-03 00:00 08-Jun-03 00:00 3.08 2.10 2.91 4.8 Stack and store 2.61 1.93 4.3 29.9 963.74




























Sunday 08-Jun-03 00:00 09-Jun-03 00:00 3.01 3.30 3.43 7.5 Stack and store 2.58 1.97 4.5 31.4 971.24










Monday 09-Jun-03 00:00 10-Jun-03 00:00 3.37 3.14 3.52 7.1 Stack and store 2.78 2.21 5.0 35.3 978.34









Tuesday 10-Jun-03 00:00 11-Jun-03 00:00 3.31 3.13 3.39 7.1 Stack and store 2.92 2.34 5.3 37.3 985.44









Wednesday 11-Jun-03 00:00 12-Jun-03 00:00 3.59 2.87 3.32 6.5 attempting to tune up 3.13 2.56 5.8 40.7 991.94









Thursday 12-Jun-03 00:00 13-Jun-03 00:00 3.10 2.20 2.93 5.4 tuning up Booster 3.28 2.75 6.3 44.2 997.34









Friday 13-Jun-03 00:00 14-Jun-03 00:00 2.63 1.35 2.34 3.1 tuning up Booster 3.16 2.58 5.9 41.5 1000.44









Saturday 14-Jun-03 00:00 15-Jun-03 00:00 3.71 2.92 3.65 6.7 tuning up Booster 3.25 2.70 6.2 43.4 1007.14









Sunday 15-Jun-03 00:00 16-Jun-03 00:00 4.00 2.75 3.65 6.3 tuning up Booster 3.39 2.62 6.0 42.2 1013.44









Monday 16-Jun-03 00:00 17-Jun-03 00:00 3.96 2.63 3.52 6.1
3.47 2.55 5.9 41.2 1019.54









Tuesday 17-Jun-03 00:00 18-Jun-03 00:00 1.96 0.96 1.36 2.2 Various accesses 3.28 2.24 5.2 36.3 1021.74









Wednesday 18-Jun-03 00:00 19-Jun-03 00:00 3.62 2.49 3.20 5.8 tuning up Booster 3.28 2.19 5.1 35.6 1027.54









Thursday 19-Jun-03 00:00 20-Jun-03 00:00 4.05 2.83 3.50 6.5
3.42 2.28 5.2 36.7 1034.04









Friday 20-Jun-03 00:00 21-Jun-03 00:00 4.02 1.13 1.57 2.6 MI air leak. 3.62 2.24 5.2 36.2 1036.64









Saturday 21-Jun-03 00:00 22-Jun-03 00:00 3.24 2.03 3.04 4.7 Tuning, stack and store 3.55 2.12 4.9 34.2 1041.34









Sunday 22-Jun-03 00:00 23-Jun-03 00:00 3.90 2.64 3.18 6.1
3.54 2.10 4.9 34.0 1047.44









Monday 23-Jun-03 00:00 24-Jun-03 00:00 3.53 2.85 3.15 6.5 tuning up Booster 3.47 2.13 4.9 34.4 1053.94









Tuesday 24-Jun-03 00:00 25-Jun-03 00:00 1.89 1.16 1.71 2.6 tuning up Booster 3.46 2.16 5.0 34.8 1056.54









Wednesday 25-Jun-03 00:00 26-Jun-03 00:00 3.18 2.31 2.74 5.3
3.40 2.14 4.9 34.3 1061.84









Thursday 26-Jun-03 00:00 27-Jun-03 00:00 3.57 2.72 3.08 6.2
3.33 2.12 4.9 34.0 1068.04









Friday 27-Jun-03 00:00 28-Jun-03 00:00 3.77 3.06 3.32 7.0 Stack and store 3.30 2.40 5.5 38.4 1075.04









Saturday 28-Jun-03 00:00 29-Jun-03 00:00 3.72 3.06 3.30 7.0 Stack and store 3.37 2.54 5.8 40.7 1082.04









Sunday 29-Jun-03 00:00 30-Jun-03 00:00 3.57 3.02 3.16 6.9 Booster kicker problem 3.32 2.60 5.9 41.5 1088.94









Monday 30-Jun-03 00:00 01-Jul-03 00:00 3.52 2.82 2.86 6.5
3.32 2.59 5.9 41.5 1095.44









Tuesday 01-Jul-03 00:00 02-Jul-03 00:00 3.16 1.42 2.47 3.2 No beam in the afternoon 3.50 2.63 6.0 42.1 1098.64









Wednesday 02-Jul-03 00:00 03-Jul-03 00:00 2.50 0.65 1.22 1.5 Lost MI magnet 3.40 2.39 5.5 38.3 1100.14









































Thursday 03-Jul-03 00:00 04-Jul-03 00:00 2.77 2.00 2.76 4.5 Low intensity, high rep rate 3.29 2.29 5.2 36.6 1104.64
























Friday 04-Jul-03 00:00 05-Jul-03 00:00 1.96 1.50 2.35 3.4
3.03 2.07 4.7 33.0 1108.04























Saturday 05-Jul-03 00:00 06-Jul-03 00:00 2.78 2.41 3.27 5.5
2.89 1.97 4.5 31.5 1113.54























Sunday 06-Jul-03 00:00 07-Jul-03 00:00 2.47 2.32 2.86 5.2
2.74 1.87 4.3 29.8 1118.74























Monday 07-Jul-03 00:00 08-Jul-03 00:00 2.89 1.98 2.97 4.6
2.65 1.75 4.0 27.9 1123.34























Tuesday 08-Jul-03 00:00 09-Jul-03 00:00 2.89 2.47 3.11 5.6 High intensity, low rep rate 2.61 1.90 4.3 30.3 1128.94























Wednesday 09-Jul-03 00:00 10-Jul-03 00:00 3.22 2.84 3.18 6.5
2.71 2.22 5.0 35.3 1135.44























Thursday 10-Jul-03 00:00 11-Jul-03 00:00 3.35 2.54 2.82 5.8
2.79 2.29 5.2 36.6 1141.24























Friday 11-Jul-03 00:00 12-Jul-03 00:00 2.82 1.74 1.89 3.9 Replace MH2 2.92 2.33 5.3 37.1 1145.14























Saturday 12-Jul-03 00:00 13-Jul-03 00:00 3.27 3.27 3.37 7.4
2.99 2.45 5.6 39.0 1152.54























Sunday 13-Jul-03 00:00 14-Jul-03 00:00 2.54 2.32 2.71 5.3
3.00 2.45 5.6 39.1 1157.84























Monday 14-Jul-03 00:00 15-Jul-03 00:00 3.06 3.00 3.32 6.7
3.02 2.60 5.9 41.2 1164.54























Tuesday 15-Jul-03 00:00 16-Jul-03 00:00 2.94 2.87 3.23 6.5
3.03 2.65 6.0 42.1 1171.04























Wednesday 16-Jul-03 00:00 17-Jul-03 00:00 3.35 2.74 3.32 7.2
3.05 2.64 6.1 42.8 1178.24























Thursday 17-Jul-03 00:00 18-Jul-03 00:00 3.22 2.52 3.04 5.7
3.03 2.64 6.1 42.7 1183.94























Friday 18-Jul-03 00:00 19-Jul-03 00:00 3.77 3.01 3.36 6.9
3.16 2.82 6.5 45.7 1190.84























Saturday 19-Jul-03 00:00 20-Jul-03 00:00 3.75 2.97 3.44 6.7
3.23 2.78 6.4 45.0 1197.54























Sunday 20-Jul-03 00:00 21-Jul-03 00:00 3.77 3.00 3.53 6.9
3.41 2.87 6.7 46.6 1204.44























Monday 21-Jul-03 00:00 22-Jul-03 00:00 3.74 3.02 3.62 6.8 Stack and store 3.51 2.88 6.7 46.7 1211.24























Tuesday 22-Jul-03 00:00 23-Jul-03 00:00 3.46 2.75 3.38 6.3 Stack and store 3.58 2.86 6.6 46.5 1217.54























Wednesday 23-Jul-03 00:00 24-Jul-03 00:00 3.49 2.95 3.44 6.7 Stack and store 3.60 2.89 6.6 46.0 1224.24























Thursday 24-Jul-03 00:00 25-Jul-03 00:00 2.12 1.79 2.36 4.0 Stack and store. DAQ problem at 0200. a.m. access 3.44 2.78 6.3 44.3 1228.24























Friday 25-Jul-03 00:00 26-Jul-03 00:00 2.89 2.55 3.32 5.8
3.32 2.72 6.2 43.2 1234.04























Saturday 26-Jul-03 00:00 27-Jul-03 00:00 3.42 2.98 3.03 6.7
3.27 2.72 6.2 43.2 1240.74























Sunday 27-Jul-03 00:00 28-Jul-03 00:00 3.36 2.93 3.62 6.6
3.21 2.71 6.1 42.9 1247.34























Monday 28-Jul-03 00:00 29-Jul-03 00:00 3.30 2.97 3.49 6.6 Stack and store 3.15 2.70 6.1 42.7 1253.94























Tuesday 29-Jul-03 00:00 30-Jul-03 00:00 3.43 3.21 3.69 7.1 Stack and store 3.14 2.77 6.2 43.5 1261.04























Wednesday 30-Jul-03 00:00 31-Jul-03 00:00 3.26 2.90 3.50 6.4 Stack and store 3.11 2.76 6.2 43.2 1267.44









































Thursday 31-Jul-03 00:00 01-Aug-03 00:00 3.48 3.16 3.67 6.8 Stack and store 3.31 2.96 6.6 46.0 1274.24
























Friday 01-Aug-03 00:00 02-Aug-03 00:00 2.70 2.25 3.01 5.0 multiwire in 400 MeV line 3.28 2.91 6.5 45.2 1279.24























Saturday 02-Aug-03 00:00 03-Aug-03 00:00 3.11 2.68 3.38 6.2 Wilson Hall power outage 3.23 2.87 6.4 44.7 1285.44























Sunday 03-Aug-03 00:00 04-Aug-03 00:00 3.32 2.48 3.41 5.7 (error with BPL5MA) 3.23 2.81 6.3 43.8 1291.14























Monday 04-Aug-03 00:00 05-Aug-03 00:00 2.85 2.02
4.6 (error with BPL5MA) 3.16 2.67 6.0 41.8 1295.74























Tuesday 05-Aug-03 00:00 06-Aug-03 00:00 2.36 2.04
4.7 FCC power outage, (error with BPL5MA) 3.01 2.50 5.6 39.4 1300.44























Wednesday 06-Aug-03 00:00 07-Aug-03 00:00 3.38 2.92 3.73 6.7 (error with BPL5MA) 3.03 2.51 5.7 39.7 1307.14























Thursday 07-Aug-03 00:00 08-Aug-03 00:00 2.60 2.10 3.10 4.9
2.90 2.36 5.4 37.8 1312.04























Friday 08-Aug-03 00:00 09-Aug-03 00:00 3.54 2.44 3.54 5.6
3.02 2.38 5.5 38.4 1317.64























Saturday 09-Aug-03 00:00 10-Aug-03 00:00 3.54 2.87 3.71 6.7 TOR875 stopped logging 3.08 2.41 5.6 38.9 1324.34























Sunday 10-Aug-03 00:00 11-Aug-03 00:00
2.97 3.63 7.0 TOR875 not logged 2.61 2.48 5.7 40.2 1331.34























Monday 11-Aug-03 00:00 12-Aug-03 00:00 3.35 2.67 3.36 6.2 TOR875 logging problem 2.68 2.57 6.0 41.8 1337.54























Tuesday 12-Aug-03 00:00 13-Aug-03 00:00 3.36 2.87 3.38 6.8 Stack and store 2.82 2.69 6.3 43.9 1344.34























Wednesday 13-Aug-03 00:00 14-Aug-03 00:00 3.39 3.09 3.37 7.1 Stack and store 2.83 2.72 6.3 44.3 1351.44























Thursday 14-Aug-03 00:00 15-Aug-03 00:00 3.40 2.94 3.31 6.8 Stack and store 2.94 2.84 6.6 46.2 1358.24























Friday 15-Aug-03 00:00 16-Aug-03 00:00 2.41 2.01 2.42 4.7 Booster down 0930-1730 2.78 2.77 6.5 45.3 1362.94























Saturday 16-Aug-03 00:00 17-Aug-03 00:00 3.05 2.38 3.50 5.5 Stack and store 2.71 2.70 6.3 44.1 1368.44























Sunday 17-Aug-03 00:00 18-Aug-03 00:00 3.57 2.72 3.37 6.3 Stack and store 3.22 2.67 6.2 43.4 1374.74























Monday 18-Aug-03 00:00 19-Aug-03 00:00 3.39 3.08 3.40 7.0 linac and booster injection problems 0930-1030 3.22 2.73 6.3 44.2 1381.74























Tuesday 19-Aug-03 00:00 20-Aug-03 00:00 3.15 2.93 3.59 6.9 orbump water leak 3.19 2.74 6.3 44.3 1388.64























Wednesday 20-Aug-03 00:00 21-Aug-03 00:00 3.44 3.08 3.56 7.1 Stack and store; some studies 3.20 2.73 6.3 44.3 1395.74























Thursday 21-Aug-03 00:00 22-Aug-03 00:00 3.40 2.97 3.48 6.9 Stack and store 3.20 2.74 6.3 44.4 1402.64























Friday 22-Aug-03 00:00 23-Aug-03 00:00 3.17 2.94 3.46 6.8 2 hr hole – Linac PFN 3.31 2.87 6.6 46.5 1409.44























Saturday 23-Aug-03 00:00 24-Aug-03 00:00 3.09 3.18 3.41 7.4 Booster longitudinal damper problems 3.32 2.99 6.9 48.4 1416.84























Sunday 24-Aug-03 00:00 25-Aug-03 00:00 3.52 3.23 3.73 7.5 Stack and store 3.31 3.06 7.1 49.6 1424.34























Monday 25-Aug-03 00:00 26-Aug-03 00:00 3.16 3.35 3.40 7.8 Stack and store 3.28 3.10 7.2 50.4 1432.14























Tuesday 26-Aug-03 00:00 27-Aug-03 00:00 3.61 2.90 3.43 6.8 Run at higher intensity 3.34 3.09 7.2 50.3 1438.94























Wednesday 27-Aug-03 00:00 28-Aug-03 00:00 3.97 3.34 3.63 7.8 Run at higher intensity 3.42 3.13 7.3 51.0 1446.74









































Thursday 28-Aug-03 00:00 29-Aug-03 00:00 1.17 1.02 1.56 2.4 8 hr shutdown ( 0700 to 0100) 3.10 2.85 6.6 46.5 1449.14
























Friday 29-Aug-03 00:00 30-Aug-03 00:00 3.61 2.30 3.23 5.4 high intensity test 3.16 2.76 6.4 45.1 1454.54























Saturday 30-Aug-03 00:00 31-Aug-03 00:00 3.94 3.11 3.57 7.3 Stack and store 3.28 2.75 6.4 45.0 1461.84























Sunday 31-Aug-03 00:00 01-Sep-03 00:00 3.93 3.17 3.64 7.3 Stack and store 3.34 2.74 6.4 44.8 1469.14























Monday 01-Sep-03 00:00 02-Sep-03 00:00 3.98 3.26 3.75 7.6 Stack and store 3.46 2.73 6.4 44.6 1476.74























Tuesday 02-Sep-03 00:00 03-Sep-03 00:00 3.96 2.99 3.66 2.3 Shut down 0800 3.51 2.74 5.7 40.1 1479.04























Wednesday 03-Sep-03 00:00 04-Sep-03 00:00 0.00 0.00 0.00 0.0 Shut down. 2.94 2.26 4.6 32.3 1479.04























Thursday 04-Sep-03 00:00 05-Sep-03 00:00 0.00 0.00 0.00 0.0 Shut down. 2.77 2.12 4.3 29.9 1479.04























Friday 05-Sep-03 00:00 06-Sep-03 00:00 0.00 0.00 0.00 0.0 Shut down. 2.26 1.79 3.5 24.5 1479.04























Saturday 06-Sep-03 00:00 07-Sep-03 00:00 0.00 0.00 0.00 0.0 Shut down. 1.70 1.35 2.5 17.2 1479.04























Sunday 07-Sep-03 00:00 08-Sep-03 00:00 0.00 0.00 0.00 0.0 Shut down. 1.13 0.89 1.4 9.9 1479.04























Monday 08-Sep-03 00:00 09-Sep-03 00:00 0.00 0.00 0.00 0.0 Shut down. 0.57 0.43 0.3 2.3 1479.04























Tuesday 09-Sep-03 00:00 10-Sep-03 00:00 0.00 0.00 0.00 0.0 Shut down. 0.00 0.00 0.0 0.0 1479.04























Wednesday 10-Sep-03 00:00 11-Sep-03 00:00 0.00 0.00 0.00 0.0 Shut down. 0.00 0.00 0.0 0.0 1479.04























Thursday 11-Sep-03 00:00 12-Sep-03 00:00 0.00 0.00 0.00 0.0 Shut down. 0.00 0.00 0.0 0.0 1479.04























Friday 12-Sep-03 00:00 13-Sep-03 00:00 0.00 0.00 0.00 0.0 Shut down. 0.00 0.00 0.0 0.0 1479.04























Saturday 13-Sep-03 00:00 14-Sep-03 00:00 0.00 0.00 0.00 0.0 Shut down. 0.00 0.00 0.0 0.0 1479.04























Sunday 14-Sep-03 00:00 15-Sep-03 00:00 0.00 0.00 0.00 0.0 Shut down. 0.00 0.00 0.0 0.0 1479.04























Monday 15-Sep-03 00:00 16-Sep-03 00:00 0.00 0.00 0.00 0.0 Shut down. 0.00 0.00 0.0 0.0 1479.04























Tuesday 16-Sep-03 00:00 17-Sep-03 00:00 0.00 0.00 0.00 0.0 Shut down. 0.00 0.00 0.0 0.0 1479.04























Wednesday 17-Sep-03 00:00 18-Sep-03 00:00 0.00 0.00 0.00 0.0 Shut down. 0.00 0.00 0.0 0.0 1479.04























Thursday 18-Sep-03 00:00 19-Sep-03 00:00 0.00 0.00 0.00 0.0 Shut down. 0.00 0.00 0.0 0.0 1479.04























Friday 19-Sep-03 00:00 20-Sep-03 00:00 0.00 0.00 0.00 0.0 Shut down. 0.00 0.00 0.0 0.0 1479.04























Saturday 20-Sep-03 00:00 21-Sep-03 00:00 0.00 0.00 0.00 0.0 Shut down. 0.00 0.00 0.0 0.0 1479.04























Sunday 21-Sep-03 00:00 22-Sep-03 00:00 0.00 0.00 0.00 0.0 Shut down. 0.00 0.00 0.0 0.0 1479.04























Monday 22-Sep-03 00:00 23-Sep-03 00:00 0.00 0.00 0.00 0.0 Shut down. 0.00 0.00 0.0 0.0 1479.04























Tuesday 23-Sep-03 00:00 24-Sep-03 00:00 0.00 0.00 0.00 0.0 Shut down. 0.00 0.00 0.0 0.0 1479.04























Wednesday 24-Sep-03 00:00 25-Sep-03 00:00 0.00 0.00 0.00 0.0 Shut down. 0.00 0.00 0.0 0.0 1479.04









































Thursday 25-Sep-03 00:00 26-Sep-03 00:00 0.00 0.00 0.00 0.0 Shut down. 0.00 0.00 0.0 0.0 1479.04
























Friday 26-Sep-03 00:00 27-Sep-03 00:00 0.00 0.00 0.00 0.0 Shut down. 0.00 0.00 0.0 0.0 1479.04























Saturday 27-Sep-03 00:00 28-Sep-03 00:00 0.00 0.00 0.00 0.0 Shut down. 0.00 0.00 0.0 0.0 1479.04























Sunday 28-Sep-03 00:00 29-Sep-03 00:00 0.00 0.00 0.00 0.0 Shut down. 0.00 0.00 0.0 0.0 1479.04























Monday 29-Sep-03 00:00 30-Sep-03 00:00 0.00 0.00 0.00 0.0 Shut down. 0.00 0.00 0.0 0.0 1479.04























Tuesday 30-Sep-03 00:00 01-Oct-03 00:00 0.00 0.00 0.00 0.0 Shut down. 0.00 0.00 0.0 0.0 1479.04























Wednesday 01-Oct-03 00:00 02-Oct-03 00:00 0.00 0.00 0.00 0.0 Shut down. 0.00 0.00 0.0 0.0 1479.04























Thursday 02-Oct-03 00:00 03-Oct-03 00:00 0.00 0.00 0.00 0.0 Shut down. 0.00 0.00 0.0 0.0 1479.04























Friday 03-Oct-03 00:00 04-Oct-03 00:00 0.00 0.00 0.00 0.0 Shut down. 0.00 0.00 0.0 0.0 1479.04























Saturday 04-Oct-03 00:00 05-Oct-03 00:00 0.00 0.00 0.00 0.0 Shut down. 0.00 0.00 0.0 0.0 1479.04























Sunday 05-Oct-03 00:00 06-Oct-03 00:00 0.00 0.00 0.00 0.0 Shut down. 0.00 0.00 0.0 0.0 1479.04























Monday 06-Oct-03 00:00 07-Oct-03 00:00 0.00 0.00 0.00 0.0 Shut down. 0.00 0.00 0.0 0.0 1479.04























Tuesday 07-Oct-03 00:00 08-Oct-03 00:00 0.00 0.00 0.00 0.0 Shut down. 0.00 0.00 0.0 0.0 1479.04























Wednesday 08-Oct-03 00:00 09-Oct-03 00:00 0.00 0.00 0.00 0.0 Shut down. 0.00 0.00 0.0 0.0 1479.04























Thursday 09-Oct-03 00:00 10-Oct-03 00:00 0.00 0.00 0.00 0.0 Shut down. 0.00 0.00 0.0 0.0 1479.04























Friday 10-Oct-03 00:00 11-Oct-03 00:00 0.00 0.00 0.00 0.0 Shut down. 0.00 0.00 0.0 0.0 1479.04























Saturday 11-Oct-03 00:00 12-Oct-03 00:00 0.00 0.00 0.00 0.0 Shut down. 0.00 0.00 0.0 0.0 1479.04























Sunday 12-Oct-03 00:00 13-Oct-03 00:00 0.00 0.00 0.00 0.0 Shut down. 0.00 0.00 0.0 0.0 1479.04























Monday 13-Oct-03 00:00 14-Oct-03 00:00 0.00 0.00 0.00 0.0 Shut down. 0.00 0.00 0.0 0.0 1479.04























Tuesday 14-Oct-03 00:00 15-Oct-03 00:00 0.00 0.00 0.00 0.0 Shut down. 0.00 0.00 0.0 0.0 1479.04























Wednesday 15-Oct-03 00:00 16-Oct-03 00:00 0.00 0.00 0.00 0.0 Shut down. 0.00 0.00 0.0 0.0 1479.04























Thursday 16-Oct-03 00:00 17-Oct-03 00:00 0.00 0.00 0.00 0.0 Shut down. 0.00 0.00 0.0 0.0 1479.04























Friday 17-Oct-03 00:00 18-Oct-03 00:00 0.00 0.00 0.00 0.0 Shut down. 0.00 0.00 0.0 0.0 1479.04























Saturday 18-Oct-03 00:00 19-Oct-03 00:00 0.00 0.00 0.00 0.0 Shut down. 0.00 0.00 0.0 0.0 1479.04























Sunday 19-Oct-03 00:00 20-Oct-03 00:00 0.00 0.00 0.00 0.0 Shut down. 0.00 0.00 0.0 0.0 1479.04























Monday 20-Oct-03 00:00 21-Oct-03 00:00 0.00 0.00 0.00 0.0 Shut down. 0.00 0.00 0.0 0.0 1479.04























Tuesday 21-Oct-03 00:00 22-Oct-03 00:00 0.00 0.00 0.00 0.0 Shut down. 0.00 0.00 0.0 0.0 1479.04























Wednesday 22-Oct-03 00:00 23-Oct-03 00:00 0.00 0.00 0.00 0.0 Shut down. 0.00 0.00 0.0 0.0 1479.04









































Thursday 23-Oct-03 00:00 24-Oct-03 00:00 0.00 0.00 0.00 0.0 Shut down. 0.00 0.00 0.0 0.0 1479.04









































Friday 24-Oct-03 00:00 25-Oct-03 00:00 0.00 0.00 0.00 0.0 Shut down. 0.00 0.00 0.0 0.0 1479.04









































Saturday 25-Oct-03 00:00 26-Oct-03 00:00 0.00 0.00 0.00 0.0 Shut down. 0.00 0.00 0.0 0.0 1479.04









































Sunday 26-Oct-03 00:00 27-Oct-03 00:00 0.00 0.00 0.00 0.0 Shut down. 0.00 0.00 0.0 0.0 1479.04









































Monday 27-Oct-03 00:00 28-Oct-03 00:00 0.00 0.00 0.00 0.0 Shut down. 0.00 0.00 0.0 0.0 1479.04









































Tuesday 28-Oct-03 00:00 29-Oct-03 00:00 0.00 0.00 0.00 0.0 Shut down. 0.00 0.00 0.0 0.0 1479.04









































Wednesday 29-Oct-03 00:00 30-Oct-03 00:00 0.00 0.00 0.00 0.0 Shut down. 0.00 0.00 0.0 0.0 1479.04









































Thursday 30-Oct-03 00:00 31-Oct-03 00:00 0.00 0.00 0.00 0.0 Shut down. 0.00 0.00 0.0 0.0 1479.04









































Friday 31-Oct-03 00:00 01-Nov-03 00:00 0.00 0.00 0.00 0.0 Shut down. 0.00 0.00 0.0 0.0 1479.04









































Saturday 01-Nov-03 00:00 02-Nov-03 00:00 0.00 0.00 0.00 0.0 Shut down. 0.00 0.00 0.0 0.0 1479.04









































Sunday 02-Nov-03 00:00 03-Nov-03 00:00 0.00 0.00 0.00 0.0 Shut down. 0.00 0.00 0.0 0.0 1479.04









































Monday 03-Nov-03 00:00 04-Nov-03 00:00 0.00 0.00 0.00 0.0 Shut down. 0.00 0.00 0.0 0.0 1479.04









































Tuesday 04-Nov-03 00:00 05-Nov-03 00:00 0.00 0.00 0.00 0.0 Shut down. 0.00 0.00 0.0 0.0 1479.04





















Wednesday 05-Nov-03 00:00 06-Nov-03 00:00 0.00 0.00 0.00 0.0 Shut down. 0.00 0.00 0.0 0.0 1479.04




















Thursday 06-Nov-03 00:00 07-Nov-03 00:00 0.00 0.00 0.00 0.0 Shut down. 0.00 0.00 0.0 0.0 1479.04




















Friday 07-Nov-03 00:00 08-Nov-03 00:00 0.00 0.00 0.00 0.0 Shut down. 0.00 0.00 0.0 0.0 1479.04




















Saturday 08-Nov-03 00:00 09-Nov-03 00:00 0.00 0.00 0.00 0.0 Shut down. 0.00 0.00 0.0 0.0 1479.04




















Sunday 09-Nov-03 00:00 10-Nov-03 00:00 0.00 0.00 0.00 0.0 (shutdown) 0.00 0.00 0.0 0.0 1479.04




















Monday 10-Nov-03 00:00 11-Nov-03 00:00 0.00 0.00 0.00 0.0 (shutdown) 0.57 0.43 0.3 0.0 1479.04




















Tuesday 11-Nov-03 00:00 12-Nov-03 00:00 0.00 0.00 0.00 0.0 (shutdown) 0.00 0.00 0.0 0.0 1479.04




















Wednesday 12-Nov-03 00:00 13-Nov-03 00:00 0.00 0.00 0.00 0.0 (shutdown) 0.00 0.00 0.0 0.0 1479.04




















Thursday 13-Nov-03 00:00 14-Nov-03 00:00 0.00 0.00 0.00 0.0 (shutdown) 0.00 0.00 0.0 0.0 1479.04




















Friday 14-Nov-03 00:00 15-Nov-03 00:00 0.00 0.00 0.00 0.0 (shutdown) 0.00 0.00 0.0 0.0 1479.04




















Saturday 15-Nov-03 00:00 16-Nov-03 00:00 0.40 0.11 0.19 0.3 (1600 on) 0.06 0.02 0.0 0.3 1479.34




















Sunday 16-Nov-03 00:00 17-Nov-03 00:00 2.00 1.06 1.51 2.4
0.34 0.17 0.4 2.7 1481.74




















Monday 17-Nov-03 00:00 18-Nov-03 00:00 2.42 0.77 1.47 1.8 tuning on Booster losses 0.69 0.28 0.6 4.5 1483.54




















Tuesday 18-Nov-03 00:00 19-Nov-03 00:00 2.67 0.84 1.45 1.9 tuning on Booster losses 1.07 0.40 0.9 6.4 1485.44




















Wednesday 19-Nov-03 00:00 20-Nov-03 00:00 3.07 0.92 1.56 2.2 tuning on Booster losses 1.51 0.53 1.2 8.6 1487.64




















Thursday 20-Nov-03 00:00 21-Nov-03 00:00 3.55 1.22 2.08 2.8 tuning on Booster losses 2.02 0.70 1.6 11.4 1490.44




















Friday 21-Nov-03 00:00 22-Nov-03 00:00 2.50 0.80 1.39 1.8 six hours down time 2.37 0.82 1.9 13.2 1492.24




















Saturday 22-Nov-03 00:00 23-Nov-03 00:00 3.37 0.95 1.48 2.2
2.80 0.94 2.2 15.1 1494.44




















Sunday 23-Nov-03 00:00 24-Nov-03 00:00 3.17 0.93 1.53 2.1
2.96 0.92 2.1 14.8 1496.54




















Monday 24-Nov-03 00:00 25-Nov-03 00:00 1.61 0.68 1.14 1.5 four hour down time 2.85 0.91 2.1 14.5 1498.04




















Tuesday 25-Nov-03 00:00 26-Nov-03 00:00 2.40 0.62 1.15 1.4
2.81 0.87 2.0 14.0 1499.44









































Wednesday 26-Nov-03 00:00 27-Nov-03 00:00 2.84 0.89 1.91 2.0
2.78 0.87 2.0 13.8 1501.44









































Thursday 27-Nov-03 00:00 28-Nov-03 00:00 2.16 0.28 0.87 0.6 MI LCW problem 2.58 0.74 1.7 11.6 1502.04









































Friday 28-Nov-03 00:00 29-Nov-03 00:00 2.37 0.19 0.88 0.4 Q874 leak 2.56 0.65 1.5 10.2 1502.44









































Saturday 29-Nov-03 00:00 30-Nov-03 00:00 2.78 1.04 1.90 2.3 three hours Booster study 2.48 0.66 1.5 10.3 1504.74









































Sunday 30-Nov-03 00:00 01-Dec-03 00:00 2.48 0.96 1.70 2.2 eight hour Booster study 2.38 0.67 1.5 10.4 1506.94









































Monday 01-Dec-03 00:00 02-Dec-03 00:00 2.20 0.75 1.81 1.7 about 3 hours douwntime 2.46 0.68 1.5 10.6 1508.64









































Tuesday 02-Dec-03 00:00 03-Dec-03 00:00 2.92 0.94 1.70 2.1 2 hours downtime 2.54 0.72 1.6 11.3 1510.74









































Wednesday 03-Dec-03 00:00 04-Dec-03 00:00 3.29 1.22 1.89 2.7
2.60 0.77 1.7 12.0 1513.44









































Thursday 04-Dec-03 00:00 05-Dec-03 00:00 3.58 1.27 2.66 2.9 running at >4E12 after noon 2.80 0.91 2.0 14.3 1516.34









































Friday 05-Dec-03 00:00 06-Dec-03 00:00 4.27 1.35 2.27 3.1
3.07 1.08 2.4 17.0 1519.44









































Saturday 06-Dec-03 00:00 07-Dec-03 00:00 1.29 0.33 0.88 0.7 18 hr downtime 2.86 0.97 2.2 15.4 1520.14









































Sunday 07-Dec-03 00:00 08-Dec-03 00:00 4.16 2.15 2.99 4.9 1 hr downtime 3.10 1.14 2.6 18.1 1525.04









































Monday 08-Dec-03 00:00 09-Dec-03 00:00 1.06 0.41 0.90 0.9 18 hr downtime 2.94 1.10 2.5 17.3 1525.94









































Tuesday 09-Dec-03 00:00 10-Dec-03 00:00 0.38 0.07 0.19 0.2 v low int. for 2 hrs 2.58 0.97 2.2 15.4 1526.14









































Wednesday 10-Dec-03 00:00 11-Dec-03 00:00 4.02 1.82 2.91 3.4
2.68 1.06 2.3 16.1 1529.54









































Thursday 11-Dec-03 00:00 12-Dec-03 00:00 1.73 0.77 1.46 1.7 13 hr downtime 2.42 0.99 2.1 14.9 1531.24









































Friday 12-Dec-03 00:00 13-Dec-03 00:00 2.25 1.22 1.95 2.7 10 hr downtime 2.13 0.97 2.1 14.5 1533.94









































Saturday 13-Dec-03 00:00 14-Dec-03 00:00 3.68 2.09 3.29 4.7 1 hr downtime 2.47 1.22 2.6 18.5 1538.64









































Sunday 14-Dec-03 00:00 15-Dec-03 00:00 3.95 2.05 2.90 4.6 0 hr downtime 2.44 1.20 2.6 18.2 1543.24









































Monday 15-Dec-03 00:00 16-Dec-03 00:00 4.04 2.48 3.13 5.6 0 hr downtime 2.86 1.50 3.3 22.9 1548.84









































Tuesday 16-Dec-03 00:00 17-Dec-03 00:00 3.92 2.33 2.91 5.2 3 hr low intensity 3.37 1.82 4.0 27.9 1554.04









































Wednesday 17-Dec-03 00:00 18-Dec-03 00:00 4.34 2.32 2.80 5.2 2 hr low intensity 3.42 1.89 4.2 29.7 1559.24









































Thursday 18-Dec-03 00:00 19-Dec-03 00:00 3.93 2.45 2.92 5.5
3.73 2.13 4.8 33.5 1564.74









































Friday 19-Dec-03 00:00 20-Dec-03 00:00 3.90 3.02 3.42 6.8 4 hr down time 3.97 2.39 5.4 37.6 1571.54









































Saturday 20-Dec-03 00:00 21-Dec-03 00:00 3.86 1.92 2.21 4.3 linac problems - low rate 1.2 day 3.99 2.37 5.3 37.2 1575.84









































Sunday 21-Dec-03 00:00 22-Dec-03 00:00 3.60 3.92 3.66 8.8 good running 3.94 2.63 5.9 41.4 1584.64









































Monday 22-Dec-03 00:00 23-Dec-03 00:00 2.07 0.23 0.76 0.5 linac failure 3.66 2.31 5.2 36.3 1585.14









































Tuesday 23-Dec-03 00:00 24-Dec-03 00:00 0.00 0.00 0.00 0.0 linac failure 3.10 1.98 4.4 31.1 1585.14









































Wednesday 24-Dec-03 00:00 25-Dec-03 00:00 0.00 0.00 0.00 0.0 linac failure 2.48 1.65 3.7 25.9 1585.14









































Thursday 25-Dec-03 00:00 26-Dec-03 00:00 0.00 0.00 0.00 0.0 linac failure 1.92 1.30 2.9 20.4 1585.14









































Friday 26-Dec-03 00:00 27-Dec-03 00:00 0.00 0.00 0.00 0.0 linac failure 1.36 0.87 1.9 13.6 1585.14









































Saturday 27-Dec-03 00:00 28-Dec-03 00:00 0.00 0.00 0.00 0.0 linac failure 0.81 0.59 1.3 9.3 1585.14









































Sunday 28-Dec-03 00:00 29-Dec-03 00:00 2.81 0.55 1.94 1.2 beam up at ~1800 0.70 0.11 0.2 1.7 1586.34









































Monday 29-Dec-03 00:00 30-Dec-03 00:00 2.39 1.86 2.00 4.2 beam off 9 hrs 0.74 0.34 0.8 5.4 1590.54









































Tuesday 30-Dec-03 00:00 31-Dec-03 00:00 3.63 3.71 3.56 8.3 steady running 1.26 0.87 2.0 13.7 1598.84









































Wednesday 31-Dec-03 00:00 01-Jan-04 00:00 3.27 3.56 3.40 7.9 3 hours off 1.73 1.38 3.1 21.6 1606.74









































Thursday 01-Jan-04 00:00 02-Jan-04 00:00 3.67 4.16 3.67 9.3 smooth running 2.25 1.98 4.4 30.9 1616.04









































Friday 02-Jan-04 00:00 03-Jan-04 00:00 3.67 4.16 3.67 9.3 smooth running 2.78 2.57 5.7 40.2 1625.34









































Saturday 03-Jan-04 00:00 04-Jan-04 00:00 2.76 2.55 2.37 5.7 6 hrs dn 3.17 2.94 6.6 45.9 1631.04









































Sunday 04-Jan-04 00:00 05-Jan-04 00:00 3.33 3.75 3.48 8.4 smooth running 3.25 3.39 7.6 53.1 1639.44









































Monday 05-Jan-04 00:00 06-Jan-04 00:00 3.63 3.81 3.61 8.5 smooth running 3.42 3.67 8.2 57.4 1647.94









































Tuesday 06-Jan-04 00:00 07-Jan-04 00:00 3.79 3.02 3.32 6.7 running 10 turns 9am 3.45 3.57 8.0 55.8 1654.64









































Wednesday 07-Jan-04 00:00 08-Jan-04 00:00 4.42 3.12 3.57 7.0 back to 4E12 9am 3.61 3.51 7.8 54.9 1661.64









































Thursday 08-Jan-04 00:00 09-Jan-04 00:00 3.68 3.03 3.42 6.8 3.8E12 at 1600 3.61 3.35 7.5 52.4 1668.44









































Friday 09-Jan-04 00:00 10-Jan-04 00:00 3.73 3.40 3.62 7.5 steady running 3.62 3.24 7.2 50.6 1675.94









































Saturday 10-Jan-04 00:00 11-Jan-04 00:00 3.17 3.53 3.86 7.8 steady running 3.68 3.38 7.5 52.7 1683.74









































Sunday 11-Jan-04 00:00 12-Jan-04 00:00 2.48 2.67 2.75 5.9 400 MeV tuning - 4 hrs 3.56 3.23 7.2 50.2 1689.64









































Monday 12-Jan-04 00:00 13-Jan-04 00:00 3.55 3.07 2.95 6.5 400 MeV tuning - 4 hrs 3.55 3.12 6.9 48.2 1696.14









































Tuesday 13-Jan-04 00:00 14-Jan-04 00:00 3.78 3.16 3.20 7.0 400 MeV tuning - 1 hr 3.54 3.14 6.9 48.5 1703.14









































Wednesday 14-Jan-04 00:00 15-Jan-04 00:00 2.12 2.04 2.00 4.5 9 hr dn time - MB failures 3.22 2.99 6.6 46.0 1707.64









































Thursday 15-Jan-04 00:00 16-Jan-04 00:00 1.97 1.78 1.88 3.9 12 hrs downtime 2.97 2.81 6.2 43.1 1711.54









































Friday 16-Jan-04 00:00 17-Jan-04 00:00 4.13 3.70 3.44 8.2
3.03 2.85 6.3 43.8 1719.74









































Saturday 17-Jan-04 00:00 18-Jan-04 00:00 3.89 4.09 3.66 9.0
3.13 2.93 6.4 45.0 1728.74









































Sunday 18-Jan-04 00:00 19-Jan-04 00:00 3.57 3.40 3.76 8.3
3.29 3.03 6.8 47.4 1737.04









































Monday 19-Jan-04 00:00 20-Jan-04 00:00 3.55 3.50 3.44 7.8
3.29 3.10 7.0 48.7 1744.84









































Tuesday 20-Jan-04 00:00 21-Jan-04 00:00 3.46 3.50 3.46 7.8
3.24 3.14 7.1 49.5 1752.64









































Wednesday 21-Jan-04 00:00 22-Jan-04 00:00 3.05 2.95 2.94 6.6 4 hrs no beam 3.37 3.27 7.4 51.6 1759.24









































Thursday 22-Jan-04 00:00 23-Jan-04 00:00 4.39 4.36 3.62 9.7
3.72 3.64 8.2 57.4 1768.94









































Friday 23-Jan-04 00:00 24-Jan-04 00:00 4.43 4.22 3.61 9.4
3.76 3.72 8.4 58.6 1778.34









































Saturday 24-Jan-04 00:00 25-Jan-04 00:00 2.40 2.05 1.83 4.1 10 hrs no beam 3.55 3.43 7.7 53.7 1782.44









































Sunday 25-Jan-04 00:00 26-Jan-04 00:00 3.44 2.54 2.42 5.7 ratty beam after noon 3.53 3.30 7.3 51.1 1788.14









































Monday 26-Jan-04 00:00 27-Jan-04 00:00 4.12 4.30 3.61 9.5
3.61 3.42 7.5 52.8 1797.64









































Tuesday 27-Jan-04 00:00 28-Jan-04 00:00 3.16 1.68 1.57 3.8 14 hrs no beam 3.57 3.16 7.0 48.8 1801.44









































Wednesday 28-Jan-04 00:00 29-Jan-04 00:00 3.99 4.11 3.45 9.1
3.70 3.32 7.3 51.3 1810.54









































Thursday 29-Jan-04 00:00 30-Jan-04 00:00 3.80 3.66 3.27 8.2
3.62 3.22 7.1 49.8 1818.74









































Friday 30-Jan-04 00:00 31-Jan-04 00:00 4.46 4.14 3.61 9.2
3.62 3.21 7.1 49.6 1827.94









































Saturday 31-Jan-04 00:00 01-Feb-04 00:00 4.37 3.77 3.51 8.4
3.91 3.46 7.7 53.9 1836.34









































Sunday 01-Feb-04 00:00 02-Feb-04 00:00 4.39 4.07 3.59 9.0
4.04 3.68 8.2 57.2 1845.34









































Monday 02-Feb-04 00:00 03-Feb-04 00:00 4.17 4.28 3.39 9.5
4.05 3.67 8.2 57.2 1854.84









































Tuesday 03-Feb-04 00:00 04-Feb-04 00:00 4.26 4.37 3.47 9.6
4.21 4.06 9.0 63.0 1864.44









































Wednesday 04-Feb-04 00:00 05-Feb-04 00:00 3.72 4.03 3.26 9.0
4.17 4.05 9.0 62.9 1873.44









































Thursday 05-Feb-04 00:00 06-Feb-04 00:00 3.92 4.23 3.46 9.4
4.18 4.13 9.2 64.1 1882.84









































Friday 06-Feb-04 00:00 07-Feb-04 00:00 3.01 2.80 2.64 6.2 Booster RF problem at 1700 3.98 3.94 8.7 61.1 1889.04









































Saturday 07-Feb-04 00:00 08-Feb-04 00:00 3.94 2.00 2.23 4.4 Booster RF low 3.92 3.68 8.2 57.1 1893.44









































Sunday 08-Feb-04 00:00 09-Feb-04 00:00 3.94 2.00 2.23 4.4 Booster RF low 3.85 3.39 7.5 52.5 1897.84









































Monday 09-Feb-04 00:00 10-Feb-04 00:00 1.35 0.82 0.99 1.8 Beam off - Booster RF 12hr 3.45 2.89 6.4 44.8 1899.64









































Tuesday 10-Feb-04 00:00 11-Feb-04 00:00 3.80 3.46 3.49 7.6 turning back on 3.38 2.76 6.1 42.8 1907.24









































Wednesday 11-Feb-04 00:00 12-Feb-04 00:00 4.09 3.66 3.46 8.1 1.5hr no beam 3.44 2.71 6.0 41.9 1915.34









































Thursday 12-Feb-04 00:00 13-Feb-04 00:00 3.17 2.39 3.16 5.3 8 hr down - Booster water leaks 3.33 2.45 5.4 37.8 1920.64









































Friday 13-Feb-04 00:00 14-Feb-04 00:00 4.59 2.59 3.56 5.8 7 hr down 3.55 2.42 5.3 37.4 1926.44









































Saturday 14-Feb-04 00:00 15-Feb-04 00:00 4.53 3.79 3.88 8.4 smooth running 3.64 2.67 5.9 41.4 1934.84









































Sunday 15-Feb-04 00:00 16-Feb-04 00:00 2.93 2.35 2.49 5.2 6 hrs dn 3.49 2.72 6.0 42.2 1940.04









































Monday 16-Feb-04 00:00 17-Feb-04 00:00 3.91 3.35 3.39 7.4 3 hrs dn time 3.86 3.08 6.8 47.8 1947.44









































Tuesday 17-Feb-04 00:00 18-Feb-04 00:00 4.31 3.72 3.64 8.2 stack and store 3.93 3.12 6.9 48.4 1955.64









































Wednesday 18-Feb-04 00:00 19-Feb-04 00:00 4.31 3.72 3.64 8.2 stack and store 3.96 3.13 6.9 48.5 1963.84









































Thursday 19-Feb-04 00:00 20-Feb-04 00:00 4.17 3.47 3.69 7.6 stack and store 4.11 3.28 7.3 50.8 1971.44









































Friday 20-Feb-04 00:00 21-Feb-04 00:00 3.87 2.81 3.46 6.1 some sporadic running 4.00 3.32 7.3 51.1 1977.54









































Saturday 21-Feb-04 00:00 22-Feb-04 00:00 2.90 2.66 2.56 5.9 9 hr dn or sporadic 3.77 3.15 6.9 48.6 1983.44









































Sunday 22-Feb-04 00:00 23-Feb-04 00:00 4.21 3.32 3.45 7.4 stack and store 3.95 3.29 7.3 50.8 1990.84









































Monday 23-Feb-04 00:00 24-Feb-04 00:00 4.52 3.96 3.74 8.7 stack and store 4.04 3.38 7.4 52.1 1999.54









































Tuesday 24-Feb-04 00:00 25-Feb-04 00:00 4.03 3.16 3.32 7.1 1 hr downtime 4.00 3.30 7.3 51.0 2006.64









































Wednesday 25-Feb-04 00:00 26-Feb-04 00:00 4.48 4.05 3.70 9.0 no down time 4.03 3.35 7.4 51.8 2015.64









































Thursday 26-Feb-04 00:00 27-Feb-04 00:00 3.59 3.24 2.90 7.2 5 hr collimator and safety system 3.94 3.31 7.3 51.4 2022.84









































Friday 27-Feb-04 00:00 28-Feb-04 00:00 4.26 3.61 3.44 8.1 2 hours low beam 4.00 3.43 7.6 53.4 2030.94









































Saturday 28-Feb-04 00:00 29-Feb-04 00:00 4.53 3.99 3.75 8.9 stack and store 4.23 3.62 8.1 56.4 2039.84









































Sunday 29-Feb-04 00:00 01-Mar-04 00:00 4.34 3.62 3.62 8.1 1 hr down - linac problems 4.25 3.66 8.2 57.1 2047.94









































Monday 01-Mar-04 00:00 02-Mar-04 00:00 3.83 2.34 3.39 7.3 recovering from lincac problems 4.15 3.43 8.0 55.7 2055.24









































Tuesday 02-Mar-04 00:00 03-Mar-04 00:00 3.98 3.21 3.99 7.1 1 hr down time 4.14 3.44 8.0 55.7 2062.34









































Wednesday 03-Mar-04 00:00 04-Mar-04 00:00 4.09 3.10 3.38 6.9 low beam 4 hrs - cogging 4.09 3.30 7.7 53.6 2069.24









































Thursday 04-Mar-04 00:00 05-Mar-04 00:00 4.59 3.72 3.59 8.3 stack and store 4.23 3.37 7.8 54.7 2077.54









































Friday 05-Mar-04 00:00 06-Mar-04 00:00 4.43 3.89 3.48 8.7 3 hr down 4.26 3.41 7.9 55.3 2086.24









































Saturday 06-Mar-04 00:00 07-Mar-04 00:00 4.61 3.27 3.74 7.3 2 hr dn time 4.27 3.31 7.7 53.7 2093.54









































Sunday 07-Mar-04 00:00 08-Mar-04 00:00 3.73 2.65 3.11 5.9 5 hr dn time 4.18 3.17 7.4 51.5 2099.44









































Monday 08-Mar-04 00:00 09-Mar-04 00:00 4.78 3.73 3.68 8.3 no sig dn time 4.32 3.37 7.5 52.5 2107.74









































Tuesday 09-Mar-04 00:00 10-Mar-04 00:00 1.96 1.82 1.68 4.1 13 hr dn - power glitch 4.03 3.17 7.1 49.5 2111.84









































Wednesday 10-Mar-04 00:00 11-Mar-04 00:00 4.43 4.08 3.53 9.0 stack and store 4.08 3.31 7.4 51.6 2120.84









































Thursday 11-Mar-04 00:00 12-Mar-04 00:00 4.56 4.16 3.62 9.1 stack and store 4.07 3.37 7.5 52.4 2129.94









































Friday 12-Mar-04 00:00 13-Mar-04 00:00 4.60 4.21 3.65 9.4 stack and store 4.10 3.42 7.6 53.1 2139.34









































Saturday 13-Mar-04 00:00 14-Mar-04 00:00 3.86 3.42 3.37 7.6 4 hr dn 3.99 3.44 7.6 53.4 2146.94









































Sunday 14-Mar-04 00:00 15-Mar-04 00:00 3.31 2.74 2.48 6.1 7 hr down - Booster 3.93 3.45 7.7 53.6 2153.04









































Monday 15-Mar-04 00:00 16-Mar-04 00:00 0.00 0.00 0.00 0.0 (shutdown) 3.25 2.92 6.5 45.3 2153.04









































Tuesday 16-Mar-04 00:00 17-Mar-04 00:00 0.00 0.00 0.00 0.0 (shutdown) 2.97 2.66 5.9 41.2 2153.04









































Wednesday 17-Mar-04 00:00 18-Mar-04 00:00 0.00 0.00 0.00 0.0 (shutdown) 2.33 2.08 4.6 32.2 2153.04









































Thursday 18-Mar-04 00:00 19-Mar-04 00:00 0.00 0.00 0.00 0.0 (shutdown) 1.68 1.48 3.3 23.1 2153.04









































Friday 19-Mar-04 00:00 20-Mar-04 00:00